createdAt,value
2018-06-16T00:01:35.545Z,7.23
2018-06-16T00:04:04.088Z,4.60
2018-06-16T00:06:32.647Z,5.63
2018-06-16T00:09:01.201Z,4.17
2018-06-16T00:11:29.799Z,5.20
2018-06-16T00:13:58.383Z,6.00
2018-06-16T00:16:27.023Z,6.80
2018-06-16T00:18:55.625Z,7.10
2018-06-16T00:21:24.271Z,5.83
2018-06-16T00:23:52.876Z,7.30
2018-06-16T00:26:21.334Z,8.00
2018-06-16T00:28:49.966Z,7.77
2018-06-16T00:31:18.595Z,6.30
2018-06-16T00:33:47.212Z,6.97
2018-06-16T00:36:15.789Z,5.27
2018-06-16T00:38:44.350Z,8.87
2018-06-16T00:41:13.003Z,5.27
2018-06-16T00:43:41.523Z,4.17
2018-06-16T00:46:10.145Z,5.80
2018-06-16T00:48:38.695Z,5.17
2018-06-16T00:51:07.226Z,4.63
2018-06-16T00:53:35.811Z,8.30
2018-06-16T00:56:04.434Z,5.27
2018-06-16T00:58:33.076Z,7.10
2018-06-16T01:01:01.760Z,9.87
2018-06-16T01:03:30.301Z,8.57
2018-06-16T01:05:58.819Z,10.53
2018-06-16T01:08:27.431Z,5.63
2018-06-16T01:10:56.116Z,7.07
2018-06-16T01:13:24.684Z,6.57
2018-06-16T01:15:53.269Z,10.47
2018-06-16T01:18:21.910Z,6.63
2018-06-16T01:20:50.480Z,8.13
2018-06-16T01:23:19.015Z,7.67
2018-06-16T01:25:47.542Z,6.87
2018-06-16T01:28:16.028Z,5.53
2018-06-16T01:30:44.535Z,8.07
2018-06-16T01:33:13.034Z,6.20
2018-06-16T01:35:41.523Z,6.23
2018-06-16T01:38:10.236Z,6.63
2018-06-16T01:40:38.835Z,8.07
2018-06-16T01:43:07.519Z,9.13
2018-06-16T01:45:36.087Z,5.50
2018-06-16T01:48:04.792Z,6.60
2018-06-16T01:50:33.509Z,7.10
2018-06-16T01:53:02.062Z,5.57
2018-06-16T01:55:30.542Z,6.27
2018-06-16T01:57:59.060Z,8.33
2018-06-16T02:00:27.591Z,6.17
2018-06-16T02:02:56.150Z,7.73
2018-06-16T02:05:24.615Z,8.40
2018-06-16T02:07:53.264Z,6.90
2018-06-16T02:10:21.759Z,5.50
2018-06-16T02:12:50.447Z,7.03
2018-06-16T02:15:19.197Z,6.27
2018-06-16T02:17:47.721Z,6.30
2018-06-16T02:20:16.238Z,7.97
2018-06-16T02:22:44.693Z,6.77
2018-06-16T02:25:13.233Z,8.97
2018-06-16T02:27:41.700Z,6.40
2018-06-16T02:30:10.251Z,10.67
2018-06-16T02:32:38.844Z,6.33
2018-06-16T02:35:07.339Z,7.30
2018-06-16T02:37:35.834Z,6.83
2018-06-16T02:40:04.382Z,6.40
2018-06-16T02:42:32.841Z,9.63
2018-06-16T02:45:01.379Z,6.33
2018-06-16T02:47:29.902Z,6.87
2018-06-16T02:49:58.482Z,7.10
2018-06-16T02:52:26.962Z,6.03
2018-06-16T02:54:55.519Z,5.83
2018-06-16T02:57:24.083Z,6.20
2018-06-16T02:59:52.639Z,6.27
2018-06-16T03:02:21.191Z,8.60
2018-06-16T03:04:49.700Z,6.97
2018-06-16T03:07:18.427Z,7.03
2018-06-16T03:09:47.241Z,7.03
2018-06-16T03:12:15.737Z,7.63
2018-06-16T03:14:44.183Z,7.17
2018-06-16T03:17:12.702Z,8.57
2018-06-16T03:19:41.242Z,6.70
2018-06-16T03:22:09.858Z,6.40
2018-06-16T03:24:38.326Z,6.77
2018-06-16T03:27:06.905Z,6.30
2018-06-16T03:29:35.531Z,7.27
2018-06-16T03:32:04.919Z,6.97
2018-06-16T03:34:33.475Z,6.33
2018-06-16T03:37:01.965Z,6.20
2018-06-16T03:39:30.582Z,10.97
2018-06-16T03:41:59.052Z,7.27
2018-06-16T03:44:27.687Z,6.40
2018-06-16T03:46:56.160Z,7.77
2018-06-16T03:49:24.747Z,6.30
2018-06-16T03:51:53.244Z,7.57
2018-06-16T03:54:21.871Z,7.03
2018-06-16T03:56:50.443Z,6.20
2018-06-16T03:59:19.040Z,6.30
2018-06-16T04:01:47.608Z,6.70
2018-06-16T04:04:16.194Z,6.87
2018-06-16T04:06:44.709Z,7.00
2018-06-16T04:09:13.159Z,7.20
2018-06-16T04:11:41.708Z,6.83
2018-06-16T04:14:10.337Z,6.50
2018-06-16T04:16:38.938Z,6.63
2018-06-16T04:19:07.440Z,7.80
2018-06-16T04:21:36.039Z,7.00
2018-06-16T04:24:04.623Z,6.93
2018-06-16T04:26:33.256Z,6.43
2018-06-16T04:29:01.920Z,6.63
2018-06-16T04:31:30.611Z,6.87
2018-06-16T04:33:59.261Z,6.47
2018-06-16T04:36:27.856Z,7.03
2018-06-16T04:38:56.427Z,7.00
2018-06-16T04:41:24.987Z,6.43
2018-06-16T04:43:53.582Z,6.80
2018-06-16T04:46:22.145Z,6.33
2018-06-16T04:48:50.873Z,7.13
2018-06-16T04:51:19.403Z,6.47
2018-06-16T04:53:48.044Z,6.77
2018-06-16T04:56:16.599Z,7.03
2018-06-16T04:58:45.224Z,7.67
2018-06-16T05:01:13.766Z,6.27
2018-06-16T05:03:42.278Z,6.27
2018-06-16T05:06:11.146Z,6.30
2018-06-16T05:08:39.890Z,6.97
2018-06-16T05:11:08.675Z,6.80
2018-06-16T05:13:37.223Z,6.87
2018-06-16T05:16:06.542Z,7.53
2018-06-16T05:18:35.230Z,7.53
2018-06-16T05:21:03.897Z,7.10
2018-06-16T05:23:32.575Z,7.13
2018-06-16T05:26:01.274Z,6.50
2018-06-16T05:28:29.938Z,6.50
2018-06-16T05:30:58.578Z,7.87
2018-06-16T05:33:27.370Z,6.87
2018-06-16T05:35:56.075Z,6.13
2018-06-16T05:38:24.877Z,12.30
2018-06-16T05:40:53.687Z,6.67
2018-06-16T05:43:22.207Z,7.63
2018-06-16T05:45:50.934Z,6.50
2018-06-16T05:48:19.589Z,7.03
2018-06-16T05:50:48.480Z,6.53
2018-06-16T05:53:17.239Z,9.13
2018-06-16T05:55:45.975Z,7.00
2018-06-16T05:58:14.606Z,8.30
2018-06-16T06:00:43.325Z,9.27
2018-06-16T06:03:11.980Z,8.00
2018-06-16T06:05:40.598Z,7.53
2018-06-16T06:08:09.220Z,11.23
2018-06-16T06:10:38.022Z,6.87
2018-06-16T06:13:06.715Z,7.47
2018-06-16T06:15:35.625Z,8.83
2018-06-16T06:18:04.354Z,11.47
2018-06-16T06:20:33.002Z,9.67
2018-06-16T06:23:02.286Z,7.57
2018-06-16T06:25:30.817Z,8.53
2018-06-16T06:27:59.771Z,8.97
2018-06-16T06:30:28.429Z,10.50
2018-06-16T06:32:57.013Z,7.90
2018-06-16T06:35:25.482Z,7.13
2018-06-16T06:37:54.451Z,8.10
2018-06-16T06:40:23.827Z,8.03
2018-06-16T06:42:52.589Z,6.47
2018-06-16T06:45:21.213Z,6.87
2018-06-16T06:47:49.866Z,7.30
2018-06-16T06:50:18.859Z,7.10
2018-06-16T06:52:47.545Z,7.33
2018-06-16T06:55:16.246Z,9.07
2018-06-16T06:57:45.062Z,10.53
2018-06-16T07:00:13.706Z,9.30
2018-06-16T07:02:42.398Z,8.83
2018-06-16T07:05:11.380Z,5.97
2018-06-16T07:07:40.242Z,16.30
2018-06-16T07:10:08.952Z,19.20
2018-06-16T07:12:37.657Z,7.03
2018-06-16T07:15:06.421Z,6.27
2018-06-16T07:17:35.150Z,6.63
2018-06-16T07:20:03.905Z,5.47
2018-06-16T07:22:32.606Z,6.47
2018-06-16T07:25:01.202Z,8.17
2018-06-16T07:27:29.849Z,9.83
2018-06-16T07:29:58.471Z,5.87
2018-06-16T07:32:31.515Z,5.10
2018-06-16T07:35:00.110Z,4.90
2018-06-16T07:37:28.830Z,10.60
2018-06-16T07:39:59.366Z,6.17
2018-06-16T07:42:28.213Z,6.27
2018-06-16T07:44:56.828Z,6.77
2018-06-16T07:47:25.528Z,11.47
2018-06-16T07:49:54.220Z,7.00
2018-06-16T07:52:23.015Z,6.27
2018-06-16T07:54:51.725Z,4.10
2018-06-16T07:57:20.500Z,6.97
2018-06-16T07:59:49.165Z,5.53
2018-06-16T08:02:17.707Z,7.23
2018-06-16T08:04:47.341Z,7.13
2018-06-16T08:07:16.055Z,5.90
2018-06-16T08:12:34.156Z,4.30
2018-06-16T08:15:09.243Z,9.47
2018-06-16T08:17:37.933Z,7.90
2018-06-16T08:20:15.034Z,7.70
2018-06-16T08:22:43.779Z,5.93
2018-06-16T08:25:14.680Z,6.90
2018-06-16T08:27:43.207Z,6.80
2018-06-16T08:30:11.828Z,5.27
2018-06-16T08:32:40.361Z,5.00
2018-06-16T08:35:09.099Z,6.37
2018-06-16T08:37:37.775Z,5.75
2018-06-16T08:40:06.611Z,4.67
2018-06-16T08:42:35.341Z,6.95
2018-06-16T08:45:03.950Z,7.58
2018-06-16T08:47:32.564Z,6.83
2018-06-16T08:50:01.233Z,9.13
2018-06-16T08:52:29.906Z,6.87
2018-06-16T08:54:58.537Z,8.83
2018-06-16T08:57:28.901Z,7.07
2018-06-16T08:59:57.663Z,4.90
2018-06-16T09:02:26.307Z,8.03
2018-06-16T09:04:56.105Z,9.60
2018-06-16T09:07:29.369Z,6.45
2018-06-16T09:10:01.536Z,5.42
2018-06-16T09:12:30.411Z,6.05
2018-06-16T09:14:59.043Z,5.17
2018-06-16T09:17:27.719Z,9.60
2018-06-16T09:19:56.452Z,7.83
2018-06-16T09:22:25.201Z,5.80
2018-06-16T09:24:54.391Z,5.92
2018-06-16T09:27:23.329Z,6.87
2018-06-16T09:29:51.909Z,6.45
2018-06-16T09:32:20.615Z,7.10
2018-06-16T09:34:49.456Z,7.35
2018-06-16T09:37:18.140Z,7.05
2018-06-16T09:39:46.771Z,5.30
2018-06-16T09:42:15.646Z,8.40
2018-06-16T09:44:45.735Z,6.20
2018-06-16T09:47:25.183Z,7.37
2018-06-16T09:49:53.938Z,6.20
2018-06-16T09:52:22.752Z,8.65
2018-06-16T09:54:51.567Z,4.90
2018-06-16T09:57:20.243Z,6.28
2018-06-16T09:59:48.934Z,5.42
2018-06-16T10:02:17.693Z,3.95
2018-06-16T10:04:46.314Z,3.42
2018-06-16T10:07:14.895Z,4.85
2018-06-16T10:09:43.532Z,3.27
2018-06-16T10:12:12.214Z,3.40
2018-06-16T10:14:41.019Z,3.58
2018-06-16T10:17:09.692Z,3.72
2018-06-16T10:19:38.383Z,5.30
2018-06-16T10:22:07.092Z,4.05
2018-06-16T10:24:35.900Z,5.33
2018-06-16T10:27:05.430Z,4.08
2018-06-16T10:29:34.155Z,5.75
2018-06-16T10:32:03.005Z,4.05
2018-06-16T10:34:31.693Z,3.67
2018-06-16T10:37:00.736Z,7.85
2018-06-16T10:39:29.583Z,3.90
2018-06-16T10:41:58.429Z,4.42
2018-06-16T10:44:27.171Z,4.08
2018-06-16T10:46:56.155Z,5.97
2018-06-16T10:49:24.795Z,3.85
2018-06-16T10:51:53.500Z,5.40
2018-06-16T10:54:22.073Z,7.87
2018-06-16T10:56:50.670Z,6.25
2018-06-16T10:59:19.340Z,5.95
2018-06-16T11:01:48.036Z,3.52
2018-06-16T11:04:16.662Z,3.85
2018-06-16T11:06:45.482Z,4.15
2018-06-16T11:09:14.216Z,3.35
2018-06-16T11:11:42.791Z,6.22
2018-06-16T11:14:11.416Z,3.40
2018-06-16T11:16:40.060Z,3.98
2018-06-16T11:19:08.734Z,4.83
2018-06-16T11:21:37.610Z,2.80
2018-06-16T11:24:06.285Z,3.42
2018-06-16T11:26:34.854Z,5.15
2018-06-16T11:29:03.527Z,4.25
2018-06-16T11:31:32.243Z,3.33
2018-06-16T11:34:00.939Z,4.30
2018-06-16T11:36:29.729Z,3.33
2018-06-16T11:38:58.557Z,3.50
2018-06-16T11:41:27.176Z,4.90
2018-06-16T11:43:55.839Z,3.40
2018-06-16T11:46:24.482Z,3.77
2018-06-16T11:48:53.276Z,4.47
2018-06-16T11:51:22.015Z,5.85
2018-06-16T11:53:50.635Z,5.90
2018-06-16T11:56:19.399Z,5.72
2018-06-16T11:58:48.106Z,4.87
2018-06-16T12:01:16.840Z,4.00
2018-06-16T12:03:45.456Z,3.90
2018-06-16T12:06:14.190Z,4.67
2018-06-16T12:08:42.803Z,15.93
2018-06-16T12:11:11.522Z,5.97
2018-06-16T12:13:40.380Z,4.33
2018-06-16T12:16:08.979Z,4.70
2018-06-16T12:18:37.484Z,5.23
2018-06-16T12:21:06.036Z,4.80
2018-06-16T12:23:34.644Z,5.07
2018-06-16T12:26:03.367Z,5.60
2018-06-16T12:28:31.923Z,5.77
2018-06-16T12:31:00.533Z,4.40
2018-06-16T12:33:29.107Z,4.47
2018-06-16T12:35:57.864Z,3.80
2018-06-16T12:38:26.512Z,4.93
2018-06-16T12:40:55.358Z,3.63
2018-06-16T12:43:24.222Z,5.10
2018-06-16T12:45:53.319Z,4.70
2018-06-16T12:48:22.155Z,6.67
2018-06-16T12:50:51.022Z,4.35
2018-06-16T12:53:19.955Z,3.60
2018-06-16T12:55:48.757Z,3.30
2018-06-16T12:58:17.372Z,3.77
2018-06-16T13:00:46.117Z,4.57
2018-06-16T13:03:14.794Z,3.47
2018-06-16T13:05:43.644Z,4.07
2018-06-16T13:08:12.228Z,4.60
2018-06-16T13:10:40.979Z,6.13
2018-06-16T13:13:09.704Z,6.00
2018-06-16T13:15:38.655Z,4.53
2018-06-16T13:18:07.363Z,4.60
2018-06-16T13:20:36.008Z,5.03
2018-06-16T13:23:04.691Z,5.43
2018-06-16T13:25:33.548Z,7.93
2018-06-16T13:28:02.480Z,7.67
2018-06-16T13:30:31.254Z,4.70
2018-06-16T13:33:00.310Z,6.47
2018-06-16T13:35:28.905Z,7.13
2018-06-16T13:37:57.608Z,7.63
2018-06-16T13:40:26.224Z,6.67
2018-06-16T13:42:54.816Z,13.03
2018-06-16T13:45:23.990Z,8.83
2018-06-16T13:47:52.726Z,7.57
2018-06-16T13:50:25.089Z,8.30
2018-06-16T13:52:53.714Z,6.27
2018-06-16T13:55:22.456Z,7.07
2018-06-16T13:57:51.111Z,6.83
2018-06-16T14:00:19.782Z,10.73
2018-06-16T14:02:49.215Z,11.97
2018-06-16T14:05:18.113Z,9.50
2018-06-16T14:07:46.783Z,11.40
2018-06-16T14:10:15.424Z,6.60
2018-06-16T14:12:43.987Z,9.70
2018-06-16T14:15:13.175Z,6.57
2018-06-16T14:17:41.891Z,6.43
2018-06-16T14:20:10.929Z,5.97
2018-06-16T14:22:39.876Z,5.83
2018-06-16T14:25:08.580Z,8.60
2018-06-16T14:27:37.149Z,6.70
2018-06-16T14:30:05.730Z,5.63
2018-06-16T14:32:34.414Z,7.10
2018-06-16T14:35:02.999Z,6.80
2018-06-16T14:37:31.592Z,7.73
2018-06-16T14:40:00.284Z,5.97
2018-06-16T14:42:28.953Z,5.87
2018-06-16T14:44:57.991Z,9.17
2018-06-16T14:47:27.512Z,6.73
2018-06-16T14:49:56.279Z,8.47
2018-06-16T14:52:24.940Z,8.57
2018-06-16T14:54:53.821Z,8.60
2018-06-16T14:57:22.660Z,8.63
2018-06-16T14:59:51.499Z,6.20
2018-06-16T15:02:20.355Z,7.40
2018-06-16T15:04:49.094Z,7.33
2018-06-16T15:07:17.636Z,7.67
2018-06-16T15:09:46.270Z,8.30
2018-06-16T15:12:15.259Z,5.53
2018-06-16T15:14:43.872Z,9.00
2018-06-16T15:17:12.654Z,4.00
2018-06-16T15:19:41.308Z,3.37
2018-06-16T15:22:09.956Z,5.13
2018-06-16T15:24:38.640Z,4.30
2018-06-16T15:27:07.428Z,4.83
2018-06-16T15:29:36.192Z,7.30
2018-06-16T15:32:04.862Z,5.27
2018-06-16T15:34:33.633Z,3.77
2018-06-16T15:37:02.531Z,3.83
2018-06-16T15:39:31.292Z,5.67
2018-06-16T15:42:00.035Z,5.50
2018-06-16T15:44:28.698Z,4.90
2018-06-16T15:46:57.489Z,4.33
2018-06-16T15:49:26.195Z,7.93
2018-06-16T15:51:54.999Z,8.83
2018-06-16T15:54:23.937Z,4.00
2018-06-16T15:56:52.670Z,4.17
2018-06-16T15:59:21.473Z,5.57
2018-06-16T16:01:50.339Z,4.63
2018-06-16T16:04:19.164Z,3.63
2018-06-16T16:06:47.879Z,3.43
2018-06-16T16:09:16.510Z,5.77
2018-06-16T16:11:45.149Z,5.63
2018-06-16T16:14:13.847Z,4.43
2018-06-16T16:16:42.501Z,3.90
2018-06-16T16:19:11.106Z,5.20
2018-06-16T16:21:39.906Z,10.80
2018-06-16T16:24:08.893Z,7.70
2018-06-16T16:26:37.543Z,4.33
2018-06-16T16:29:06.276Z,7.13
2018-06-16T16:31:34.983Z,4.93
2018-06-16T16:34:03.591Z,6.80
2018-06-16T16:36:32.220Z,6.77
2018-06-16T16:39:00.818Z,11.57
2018-06-16T16:41:29.421Z,9.70
2018-06-16T16:43:58.062Z,5.50
2018-06-16T16:46:26.688Z,7.83
2018-06-16T16:48:55.371Z,9.50
2018-06-16T16:51:24.076Z,7.17
2018-06-16T16:53:52.784Z,9.30
2018-06-16T16:56:21.429Z,7.93
2018-06-16T16:58:50.028Z,10.57
2018-06-16T17:01:18.556Z,14.40
2018-06-16T17:03:47.163Z,11.40
2018-06-16T17:06:15.698Z,10.33
2018-06-16T17:08:44.421Z,12.50
2018-06-16T17:11:13.379Z,10.83
2018-06-16T17:13:42.160Z,10.53
2018-06-16T17:16:10.889Z,8.20
2018-06-16T17:18:39.494Z,12.73
2018-06-16T17:21:08.154Z,8.50
2018-06-16T17:23:36.820Z,9.10
2018-06-16T17:26:05.505Z,13.47
2018-06-16T17:28:34.191Z,9.87
2018-06-16T17:31:02.785Z,11.93
2018-06-16T17:33:31.308Z,9.77
2018-06-16T17:36:00.096Z,9.77
2018-06-16T17:38:28.683Z,12.63
2018-06-16T17:40:57.422Z,15.33
2018-06-16T17:43:26.294Z,10.20
2018-06-16T17:45:55.083Z,8.57
2018-06-16T17:48:24.136Z,10.53
2018-06-16T17:50:52.982Z,8.30
2018-06-16T17:53:21.720Z,9.67
2018-06-16T17:55:50.392Z,11.50
2018-06-16T17:58:19.081Z,10.73
2018-06-16T18:00:47.546Z,12.20
2018-06-16T18:03:16.305Z,11.70
2018-06-16T18:05:44.988Z,14.57
2018-06-16T18:08:13.683Z,9.53
2018-06-16T18:10:42.196Z,11.50
2018-06-16T18:13:10.770Z,11.17
2018-06-16T18:15:39.338Z,12.27
2018-06-16T18:18:07.882Z,13.33
2018-06-16T18:20:36.344Z,9.90
2018-06-16T18:23:04.843Z,9.17
2018-06-16T18:25:33.373Z,10.30
2018-06-16T18:28:01.991Z,10.33
2018-06-16T18:30:30.880Z,9.43
2018-06-16T18:32:59.673Z,9.00
2018-06-16T18:35:28.313Z,13.13
2018-06-16T18:37:56.917Z,12.00
2018-06-16T18:40:25.437Z,10.07
2018-06-16T18:42:53.891Z,12.63
2018-06-16T18:45:23.255Z,10.60
2018-06-16T18:47:51.913Z,10.97
2018-06-16T18:50:20.473Z,8.77
2018-06-16T18:52:49.030Z,10.73
2018-06-16T18:55:17.593Z,8.93
2018-06-16T18:57:46.065Z,16.67
2018-06-16T19:00:14.885Z,11.00
2018-06-16T19:02:43.688Z,15.33
2018-06-16T19:05:12.328Z,11.77
2018-06-16T19:07:40.953Z,11.23
2018-06-16T19:10:09.973Z,14.30
2018-06-16T19:12:38.630Z,10.27
2018-06-16T19:15:07.276Z,13.50
2018-06-16T19:17:35.839Z,13.13
2018-06-16T19:20:04.632Z,13.33
2018-06-16T19:22:33.118Z,11.63
2018-06-16T19:25:01.642Z,9.00
2018-06-16T19:27:30.303Z,9.03
2018-06-16T19:29:58.990Z,12.33
2018-06-16T19:32:27.697Z,11.17
2018-06-16T19:34:56.387Z,12.13
2018-06-16T19:37:25.102Z,12.53
2018-06-16T19:39:53.970Z,12.10
2018-06-16T19:42:22.716Z,11.03
2018-06-16T19:44:51.411Z,17.50
2018-06-16T19:47:20.031Z,14.80
2018-06-16T19:49:48.781Z,14.40
2018-06-16T19:52:17.470Z,15.37
2018-06-16T19:54:46.116Z,12.53
2018-06-16T19:57:14.814Z,11.33
2018-06-16T19:59:43.533Z,12.50
2018-06-16T20:02:12.189Z,12.03
2018-06-16T20:04:40.920Z,13.10
2018-06-16T20:07:09.637Z,12.57
2018-06-16T20:09:38.317Z,15.40
2018-06-16T20:12:07.012Z,12.47
2018-06-16T20:14:35.715Z,12.63
2018-06-16T20:17:04.454Z,12.20
2018-06-16T20:19:33.350Z,13.60
2018-06-16T20:22:02.034Z,11.20
2018-06-16T20:24:30.822Z,12.73
2018-06-16T20:26:59.536Z,12.40
2018-06-16T20:29:28.498Z,13.40
2018-06-16T20:31:57.188Z,12.77
2018-06-16T20:34:25.944Z,15.47
2018-06-16T20:36:54.652Z,14.03
2018-06-16T20:39:23.263Z,15.00
2018-06-16T20:41:52.111Z,17.07
2018-06-16T20:44:20.813Z,15.87
2018-06-16T20:46:49.450Z,16.03
2018-06-16T20:49:18.174Z,14.23
2018-06-16T20:51:46.832Z,13.57
2018-06-16T20:54:15.530Z,16.33
2018-06-16T20:56:44.508Z,16.47
2018-06-16T20:59:13.188Z,16.67
2018-06-16T21:01:41.959Z,16.50
2018-06-16T21:04:10.589Z,15.83
2018-06-16T21:06:39.280Z,16.10
2018-06-16T21:09:09.825Z,15.80
2018-06-16T21:11:38.449Z,14.90
2018-06-16T21:14:07.257Z,19.30
2018-06-16T21:16:36.179Z,13.50
2018-06-16T21:19:04.891Z,17.43
2018-06-16T21:21:33.792Z,15.93
2018-06-16T21:24:02.613Z,19.80
2018-06-16T21:26:31.477Z,15.53
2018-06-16T21:29:00.104Z,15.07
2018-06-16T21:31:28.735Z,15.07
2018-06-16T21:33:57.398Z,14.40
2018-06-16T21:36:26.159Z,15.10
2018-06-16T21:38:54.691Z,14.37
2018-06-16T21:41:23.398Z,16.40
2018-06-16T21:43:52.267Z,16.73
2018-06-16T21:46:20.989Z,17.90
2018-06-16T21:48:49.639Z,19.33
2018-06-16T21:51:18.374Z,17.83
2018-06-16T21:53:47.157Z,18.87
2018-06-16T21:56:15.873Z,17.87
2018-06-16T21:58:44.600Z,21.57
2018-06-16T22:01:13.159Z,20.10
2018-06-16T22:03:41.766Z,22.73
2018-06-16T22:06:10.445Z,24.30
2018-06-16T22:08:39.051Z,27.33
2018-06-16T22:11:07.866Z,30.57
2018-06-16T22:13:36.606Z,27.10
2018-06-16T22:16:05.162Z,28.57
2018-06-16T22:18:33.872Z,29.60
2018-06-16T22:21:02.440Z,31.10
2018-06-16T22:23:31.008Z,31.33
2018-06-16T22:25:59.512Z,27.63
2018-06-16T22:28:28.126Z,28.67
2018-06-16T22:30:56.777Z,28.57
2018-06-16T22:33:25.428Z,28.30
2018-06-16T22:35:54.080Z,27.93
2018-06-16T22:38:22.733Z,25.07
2018-06-16T22:40:51.498Z,29.57
2018-06-16T22:43:20.138Z,24.63
2018-06-16T22:45:48.882Z,29.37
2018-06-16T22:48:17.428Z,27.07
2018-06-16T22:50:46.183Z,26.00
2018-06-16T22:53:14.946Z,26.70
2018-06-16T22:55:43.781Z,27.30
2018-06-16T22:58:12.534Z,23.80
2018-06-16T23:00:41.613Z,23.57
2018-06-16T23:03:10.200Z,24.87
2018-06-16T23:05:39.066Z,26.10
2018-06-16T23:08:07.709Z,28.10
2018-06-16T23:10:36.292Z,27.20
2018-06-16T23:13:05.005Z,27.67
2018-06-16T23:15:33.688Z,21.97
2018-06-16T23:18:02.338Z,28.30
2018-06-16T23:20:30.855Z,24.50
2018-06-16T23:22:59.411Z,29.97
2018-06-16T23:25:27.975Z,26.67
2018-06-16T23:27:56.477Z,37.30
2018-06-16T23:30:25.100Z,27.83
2018-06-16T23:32:53.735Z,27.90
2018-06-16T23:35:22.226Z,27.27
2018-06-16T23:37:51.064Z,27.10
2018-06-16T23:40:19.654Z,25.57
2018-06-16T23:42:48.265Z,24.43
2018-06-16T23:45:16.784Z,24.57
2018-06-16T23:47:45.340Z,26.57
2018-06-16T23:50:13.876Z,24.10
2018-06-16T23:52:42.592Z,30.80
2018-06-16T23:55:11.099Z,26.17
2018-06-16T23:57:39.850Z,20.97
